sensor_id;sensor_type;location;lat;lon;timestamp;pressure;altitude;pressure_sealevel;temperature;humidity
57094;BME280;42970;50.996;3.706;2023-02-14T00:00:38;77794.94;;;-146.65;100.00
57094;BME280;42970;50.996;3.706;2023-02-14T00:03:03;77796.97;;;-146.65;100.00
57094;BME280;42970;50.996;3.706;2023-02-14T00:05:28;77792.94;;;-146.65;100.00
57094;BME280;42970;50.996;3.706;2023-02-14T00:07:54;77798.97;;;-146.65;100.00
57094;BME280;42970;50.996;3.706;2023-02-14T00:10:19;77807.06;;;-146.65;100.00
57094;BME280;42970;50.996;3.706;2023-02-14T00:12:44;77813.13;;;-146.65;100.00
57094;BME280;42970;50.996;3.706;2023-02-14T00:15:09;77823.19;;;-146.65;100.00
57094;BME280;42970;50.996;3.706;2023-02-14T00:17:51;77825.22;;;-146.65;100.00
57094;BME280;42970;50.996;3.706;2023-02-14T00:20:19;77819.16;;;-146.65;100.00
57094;BME280;42970;50.996;3.706;2023-02-14T00:22:44;77815.13;;;-146.65;100.00
57094;BME280;42970;50.996;3.706;2023-02-14T00:25:09;77801.00;;;-146.65;100.00
57094;BME280;42970;50.996;3.706;2023-02-14T00:27:35;77776.78;;;-146.65;100.00
57094;BME280;42970;50.996;3.706;2023-02-14T00:30:00;77772.75;;;-146.65;100.00
57094;BME280;42970;50.996;3.706;2023-02-14T00:32:30;77776.78;;;-146.65;100.00
57094;BME280;42970;50.996;3.706;2023-02-14T00:34:55;77784.84;;;-146.65;100.00
57094;BME280;42970;50.996;3.706;2023-02-14T00:37:20;77790.91;;;-146.65;100.00
57094;BME280;42970;50.996;3.706;2023-02-14T00:39:46;77794.94;;;-146.65;100.00
57094;BME280;42970;50.996;3.706;2023-02-14T00:42:11;77817.16;;;-146.65;100.00
57094;BME280;42970;50.996;3.706;2023-02-14T00:44:38;77817.16;;;-146.65;100.00
57094;BME280;42970;50.996;3.706;2023-02-14T00:47:03;77817.16;;;-146.65;100.00
57094;BME280;42970;50.996;3.706;2023-02-14T00:49:29;77821.19;;;-146.65;100.00
57094;BME280;42970;50.996;3.706;2023-02-14T00:51:54;77823.19;;;-146.65;100.00
57094;BME280;42970;50.996;3.706;2023-02-14T00:54:19;77813.13;;;-146.65;100.00
57094;BME280;42970;50.996;3.706;2023-02-14T00:56:45;77821.19;;;-146.65;100.00
57094;BME280;42970;50.996;3.706;2023-02-14T00:59:10;77827.25;;;-146.65;100.00
57094;BME280;42970;50.996;3.706;2023-02-14T01:01:36;77827.25;;;-146.65;100.00
57094;BME280;42970;50.996;3.706;2023-02-14T01:04:01;77837.34;;;-146.65;100.00
57094;BME280;42970;50.996;3.706;2023-02-14T01:06:26;77841.38;;;-146.65;100.00
57094;BME280;42970;50.996;3.706;2023-02-14T01:08:52;77835.31;;;-146.65;100.00
57094;BME280;42970;50.996;3.706;2023-02-14T01:11:18;77849.44;;;-146.65;100.00
57094;BME280;42970;50.996;3.706;2023-02-14T01:13:44;77853.47;;;-146.65;100.00
57094;BME280;42970;50.996;3.706;2023-02-14T01:16:10;77861.56;;;-146.65;100.00
57094;BME280;42970;50.996;3.706;2023-02-14T01:18:36;77859.53;;;-146.65;100.00
57094;BME280;42970;50.996;3.706;2023-02-14T01:21:17;77845.41;;;-146.65;100.00
57094;BME280;42970;50.996;3.706;2023-02-14T01:23:43;77847.41;;;-146.65;100.00
57094;BME280;42970;50.996;3.706;2023-02-14T01:26:09;77847.41;;;-146.65;100.00
57094;BME280;42970;50.996;3.706;2023-02-14T01:28:34;77843.38;;;-146.65;100.00
57094;BME280;42970;50.996;3.706;2023-02-14T01:31:07;77825.22;;;-146.65;100.00
57094;BME280;42970;50.996;3.706;2023-02-14T01:33:32;77829.25;;;-146.65;100.00
57094;BME280;42970;50.996;3.706;2023-02-14T01:35:57;77833.28;;;-146.65;100.00
57094;BME280;42970;50.996;3.706;2023-02-14T01:38:23;77839.34;;;-146.65;100.00
57094;BME280;42970;50.996;3.706;2023-02-14T01:40:48;77847.41;;;-146.65;100.00
57094;BME280;42970;50.996;3.706;2023-02-14T01:43:14;77861.56;;;-146.65;100.00
57094;BME280;42970;50.996;3.706;2023-02-14T01:45:39;77863.56;;;-146.65;100.00
57094;BME280;42970;50.996;3.706;2023-02-14T01:48:05;77871.63;;;-146.65;100.00
57094;BME280;42970;50.996;3.706;2023-02-14T01:50:32;77877.69;;;-146.65;100.00
57094;BME280;42970;50.996;3.706;2023-02-14T01:53:02;77885.75;;;-146.65;100.00
57094;BME280;42970;50.996;3.706;2023-02-14T01:55:30;77883.75;;;-146.65;100.00
57094;BME280;42970;50.996;3.706;2023-02-14T01:58:17;77867.59;;;-146.65;100.00
57094;BME280;42970;50.996;3.706;2023-02-14T02:00:43;77875.69;;;-146.65;100.00
57094;BME280;42970;50.996;3.706;2023-02-14T02:05:51;77877.69;;;-146.65;100.00
57094;BME280;42970;50.996;3.706;2023-02-14T02:08:18;77881.72;;;-146.65;100.00
57094;BME280;42970;50.996;3.706;2023-02-14T02:10:44;77885.75;;;-146.65;100.00
57094;BME280;42970;50.996;3.706;2023-02-14T02:13:15;77901.91;;;-146.65;100.00
57094;BME280;42970;50.996;3.706;2023-02-14T02:15:44;77903.94;;;-146.65;100.00
57094;BME280;42970;50.996;3.706;2023-02-14T02:18:18;77903.94;;;-146.65;100.00
57094;BME280;42970;50.996;3.706;2023-02-14T02:21:08;77905.94;;;-146.65;100.00
57094;BME280;42970;50.996;3.706;2023-02-14T02:29:31;77899.91;;;-146.65;100.00
57094;BME280;42970;50.996;3.706;2023-02-14T02:37:35;77916.03;;;-146.65;100.00
57094;BME280;42970;50.996;3.706;2023-02-14T02:47:29;77881.72;;;-146.65;100.00
57094;BME280;42970;50.996;3.706;2023-02-14T02:53:37;77881.72;;;-146.65;100.00
57094;BME280;42970;50.996;3.706;2023-02-14T02:55:48;77895.84;;;-146.65;100.00
57094;BME280;42970;50.996;3.706;2023-02-14T02:58:57;77899.91;;;-146.65;100.00
57094;BME280;42970;50.996;3.706;2023-02-14T03:01:34;77905.94;;;-146.65;100.00
57094;BME280;42970;50.996;3.706;2023-02-14T03:04:02;77909.97;;;-146.65;100.00
57094;BME280;42970;50.996;3.706;2023-02-14T03:06:48;77895.84;;;-146.65;100.00
57094;BME280;42970;50.996;3.706;2023-02-14T03:14:22;77873.66;;;-146.65;100.00
57094;BME280;42970;50.996;3.706;2023-02-14T03:17:01;77881.72;;;-146.65;100.00
57094;BME280;42970;50.996;3.706;2023-02-14T03:25:05;77873.66;;;-146.65;100.00
57094;BME280;42970;50.996;3.706;2023-02-14T03:27:38;77883.75;;;-146.65;100.00
57094;BME280;42970;50.996;3.706;2023-02-14T03:32:50;77918.06;;;-146.65;100.00
57094;BME280;42970;50.996;3.706;2023-02-14T03:38:18;77922.09;;;-146.65;100.00
57094;BME280;42970;50.996;3.706;2023-02-14T03:43:24;77901.91;;;-146.65;100.00
57094;BME280;42970;50.996;3.706;2023-02-14T03:46:09;77895.84;;;-146.65;100.00
57094;BME280;42970;50.996;3.706;2023-02-14T03:48:37;77871.63;;;-146.65;100.00
57094;BME280;42970;50.996;3.706;2023-02-14T03:51:04;77865.59;;;-146.65;100.00
57094;BME280;42970;50.996;3.706;2023-02-14T03:53:31;77865.59;;;-146.65;100.00
57094;BME280;42970;50.996;3.706;2023-02-14T03:56:17;77877.69;;;-146.65;100.00
57094;BME280;42970;50.996;3.706;2023-02-14T03:58:50;77867.59;;;-146.65;100.00
57094;BME280;42970;50.996;3.706;2023-02-14T04:03:46;77815.13;;;-146.65;100.00
57094;BME280;42970;50.996;3.706;2023-02-14T04:06:11;77829.25;;;-146.65;100.00
57094;BME280;42970;50.996;3.706;2023-02-14T04:08:36;77819.16;;;-146.65;100.00
57094;BME280;42970;50.996;3.706;2023-02-14T04:11:02;77788.91;;;-146.65;100.00
57094;BME280;42970;50.996;3.706;2023-02-14T04:13:28;77813.13;;;-146.65;100.00
57094;BME280;42970;50.996;3.706;2023-02-14T04:15:53;77829.25;;;-146.65;100.00
57094;BME280;42970;50.996;3.706;2023-02-14T04:18:18;77845.41;;;-146.65;100.00
57094;BME280;42970;50.996;3.706;2023-02-14T04:21:02;77819.16;;;-146.65;100.00
57094;BME280;42970;50.996;3.706;2023-02-14T04:23:27;77819.16;;;-146.65;100.00
57094;BME280;42970;50.996;3.706;2023-02-14T04:25:53;77827.25;;;-146.65;100.00
57094;BME280;42970;50.996;3.706;2023-02-14T04:28:18;77847.41;;;-146.65;100.00
57094;BME280;42970;50.996;3.706;2023-02-14T04:30:43;77827.25;;;-146.65;100.00
57094;BME280;42970;50.996;3.706;2023-02-14T04:33:08;77784.84;;;-146.65;100.00
57094;BME280;42970;50.996;3.706;2023-02-14T04:35:34;77780.81;;;-146.65;100.00
57094;BME280;42970;50.996;3.706;2023-02-14T04:38:00;77780.81;;;-146.65;100.00
57094;BME280;42970;50.996;3.706;2023-02-14T04:40:26;77786.88;;;-146.65;100.00
57094;BME280;42970;50.996;3.706;2023-02-14T04:42:51;77801.00;;;-146.65;100.00
57094;BME280;42970;50.996;3.706;2023-02-14T04:45:17;77807.06;;;-146.65;100.00
57094;BME280;42970;50.996;3.706;2023-02-14T04:47:42;77813.13;;;-146.65;100.00
57094;BME280;42970;50.996;3.706;2023-02-14T04:50:08;77811.09;;;-146.65;100.00
57094;BME280;42970;50.996;3.706;2023-02-14T04:52:33;77796.97;;;-146.65;100.00
57094;BME280;42970;50.996;3.706;2023-02-14T04:54:59;77778.81;;;-146.65;100.00
57094;BME280;42970;50.996;3.706;2023-02-14T04:57:24;77782.84;;;-146.65;100.00
57094;BME280;42970;50.996;3.706;2023-02-14T04:59:50;77788.91;;;-146.65;100.00
57094;BME280;42970;50.996;3.706;2023-02-14T05:02:15;77794.94;;;-146.65;100.00
57094;BME280;42970;50.996;3.706;2023-02-14T05:04:40;77805.03;;;-146.65;100.00
57094;BME280;42970;50.996;3.706;2023-02-14T05:07:05;77811.09;;;-146.65;100.00
57094;BME280;42970;50.996;3.706;2023-02-14T05:09:31;77794.94;;;-146.65;100.00
57094;BME280;42970;50.996;3.706;2023-02-14T05:11:56;77803.03;;;-146.65;100.00
57094;BME280;42970;50.996;3.706;2023-02-14T05:14:21;77819.16;;;-146.65;100.00
57094;BME280;42970;50.996;3.706;2023-02-14T05:16:48;77807.06;;;-146.65;100.00
57094;BME280;42970;50.996;3.706;2023-02-14T05:19:13;77811.09;;;-146.65;100.00
57094;BME280;42970;50.996;3.706;2023-02-14T05:21:38;77809.06;;;-146.65;100.00
57094;BME280;42970;50.996;3.706;2023-02-14T05:24:04;77821.19;;;-146.65;100.00
57094;BME280;42970;50.996;3.706;2023-02-14T05:26:30;77821.19;;;-146.65;100.00
57094;BME280;42970;50.996;3.706;2023-02-14T05:28:55;77835.31;;;-146.65;100.00
57094;BME280;42970;50.996;3.706;2023-02-14T05:31:21;77847.41;;;-146.65;100.00
57094;BME280;42970;50.996;3.706;2023-02-14T05:33:46;77839.34;;;-146.65;100.00
57094;BME280;42970;50.996;3.706;2023-02-14T05:36:12;77821.19;;;-146.65;100.00
57094;BME280;42970;50.996;3.706;2023-02-14T05:38:37;77831.28;;;-146.65;100.00
57094;BME280;42970;50.996;3.706;2023-02-14T05:41:03;77841.38;;;-146.65;100.00
57094;BME280;42970;50.996;3.706;2023-02-14T05:43:28;77847.41;;;-146.65;100.00
57094;BME280;42970;50.996;3.706;2023-02-14T05:45:54;77863.56;;;-146.65;100.00
57094;BME280;42970;50.996;3.706;2023-02-14T05:48:20;77869.63;;;-146.65;100.00
57094;BME280;42970;50.996;3.706;2023-02-14T05:50:45;77879.72;;;-146.65;100.00
57094;BME280;42970;50.996;3.706;2023-02-14T05:53:11;77877.69;;;-146.65;100.00
57094;BME280;42970;50.996;3.706;2023-02-14T05:55:36;77887.78;;;-146.65;100.00
57094;BME280;42970;50.996;3.706;2023-02-14T05:58:02;77901.91;;;-146.65;100.00
57094;BME280;42970;50.996;3.706;2023-02-14T06:00:27;77905.94;;;-146.65;100.00
57094;BME280;42970;50.996;3.706;2023-02-14T06:02:52;77901.91;;;-146.65;100.00
57094;BME280;42970;50.996;3.706;2023-02-14T06:05:18;77899.91;;;-146.65;100.00
57094;BME280;42970;50.996;3.706;2023-02-14T06:07:44;77891.81;;;-146.65;100.00
57094;BME280;42970;50.996;3.706;2023-02-14T06:10:15;77877.69;;;-146.65;100.00
57094;BME280;42970;50.996;3.706;2023-02-14T06:12:40;77853.47;;;-146.65;100.00
57094;BME280;42970;50.996;3.706;2023-02-14T06:15:06;77857.50;;;-146.65;100.00
57094;BME280;42970;50.996;3.706;2023-02-14T06:17:31;77849.44;;;-146.65;100.00
57094;BME280;42970;50.996;3.706;2023-02-14T06:19:56;77863.56;;;-146.65;100.00
57094;BME280;42970;50.996;3.706;2023-02-14T06:22:22;77871.63;;;-146.65;100.00
57094;BME280;42970;50.996;3.706;2023-02-14T06:24:47;77893.84;;;-146.65;100.00
57094;BME280;42970;50.996;3.706;2023-02-14T06:27:12;77889.81;;;-146.65;100.00
57094;BME280;42970;50.996;3.706;2023-02-14T06:29:37;77881.72;;;-146.65;100.00
57094;BME280;42970;50.996;3.706;2023-02-14T06:32:03;77891.81;;;-146.65;100.00
57094;BME280;42970;50.996;3.706;2023-02-14T06:34:31;77909.97;;;-146.65;100.00
57094;BME280;42970;50.996;3.706;2023-02-14T06:36:57;77899.91;;;-146.65;100.00
57094;BME280;42970;50.996;3.706;2023-02-14T06:39:22;77891.81;;;-146.65;100.00
57094;BME280;42970;50.996;3.706;2023-02-14T06:41:47;77837.34;;;-146.65;100.00
57094;BME280;42970;50.996;3.706;2023-02-14T06:44:12;77819.16;;;-146.65;100.00
57094;BME280;42970;50.996;3.706;2023-02-14T06:46:39;77815.13;;;-146.65;100.00
57094;BME280;42970;50.996;3.706;2023-02-14T06:49:04;77798.97;;;-146.65;100.00
57094;BME280;42970;50.996;3.706;2023-02-14T06:51:29;77776.78;;;-146.65;100.00
57094;BME280;42970;50.996;3.706;2023-02-14T06:53:55;77780.81;;;-146.65;100.00
57094;BME280;42970;50.996;3.706;2023-02-14T06:56:20;77770.72;;;-146.65;100.00
57094;BME280;42970;50.996;3.706;2023-02-14T06:58:48;77786.88;;;-146.65;100.00
57094;BME280;42970;50.996;3.706;2023-02-14T07:01:13;77801.00;;;-146.65;100.00
57094;BME280;42970;50.996;3.706;2023-02-14T07:03:39;77801.00;;;-146.65;100.00
57094;BME280;42970;50.996;3.706;2023-02-14T07:06:04;77811.09;;;-146.65;100.00
57094;BME280;42970;50.996;3.706;2023-02-14T07:08:30;77813.13;;;-146.65;100.00
57094;BME280;42970;50.996;3.706;2023-02-14T07:10:56;77792.94;;;-146.65;100.00
57094;BME280;42970;50.996;3.706;2023-02-14T07:13:22;77788.91;;;-146.65;100.00
57094;BME280;42970;50.996;3.706;2023-02-14T07:15:47;77792.94;;;-146.65;100.00
57094;BME280;42970;50.996;3.706;2023-02-14T07:18:12;77807.06;;;-146.65;100.00
57094;BME280;42970;50.996;3.706;2023-02-14T07:20:37;77813.13;;;-146.65;100.00
57094;BME280;42970;50.996;3.706;2023-02-14T07:23:03;77786.88;;;-146.65;100.00
57094;BME280;42970;50.996;3.706;2023-02-14T07:25:28;77805.03;;;-146.65;100.00
57094;BME280;42970;50.996;3.706;2023-02-14T07:27:54;77827.25;;;-146.65;100.00
57094;BME280;42970;50.996;3.706;2023-02-14T07:30:19;77831.28;;;-146.65;100.00
57094;BME280;42970;50.996;3.706;2023-02-14T07:32:45;77835.31;;;-146.65;100.00
57094;BME280;42970;50.996;3.706;2023-02-14T07:35:10;77827.25;;;-146.65;100.00
57094;BME280;42970;50.996;3.706;2023-02-14T07:37:35;77819.16;;;-146.65;100.00
57094;BME280;42970;50.996;3.706;2023-02-14T07:40:01;77823.19;;;-146.65;100.00
57094;BME280;42970;50.996;3.706;2023-02-14T07:42:26;77817.16;;;-146.65;100.00
57094;BME280;42970;50.996;3.706;2023-02-14T07:44:52;77821.19;;;-146.65;100.00
57094;BME280;42970;50.996;3.706;2023-02-14T07:47:17;77817.16;;;-146.65;100.00
57094;BME280;42970;50.996;3.706;2023-02-14T07:49:43;77815.13;;;-146.65;100.00
57094;BME280;42970;50.996;3.706;2023-02-14T07:52:08;77801.00;;;-146.65;100.00
57094;BME280;42970;50.996;3.706;2023-02-14T07:54:34;77801.00;;;-146.65;100.00
57094;BME280;42970;50.996;3.706;2023-02-14T07:56:59;77782.84;;;-146.65;100.00
57094;BME280;42970;50.996;3.706;2023-02-14T07:59:25;77768.72;;;-146.65;100.00
57094;BME280;42970;50.996;3.706;2023-02-14T08:01:50;77764.69;;;-146.65;100.00
57094;BME280;42970;50.996;3.706;2023-02-14T08:04:15;77756.59;;;-146.65;100.00
57094;BME280;42970;50.996;3.706;2023-02-14T08:06:41;77742.47;;;-146.65;100.00
57094;BME280;42970;50.996;3.706;2023-02-14T08:09:06;77692.03;;;-146.65;100.00
57094;BME280;42970;50.996;3.706;2023-02-14T08:11:34;77659.72;;;-146.65;100.00
57094;BME280;42970;50.996;3.706;2023-02-14T08:14:18;77649.63;;;-146.65;100.00
57094;BME280;42970;50.996;3.706;2023-02-14T08:16:44;77637.53;;;-146.65;100.00
57094;BME280;42970;50.996;3.706;2023-02-14T08:19:10;77625.44;;;-146.65;100.00
57094;BME280;42970;50.996;3.706;2023-02-14T08:21:35;77611.31;;;-146.65;100.00
57094;BME280;42970;50.996;3.706;2023-02-14T08:24:00;77570.94;;;-146.65;100.00
57094;BME280;42970;50.996;3.706;2023-02-14T08:26:26;77534.63;;;-146.65;100.00
57094;BME280;42970;50.996;3.706;2023-02-14T08:28:51;77526.53;;;-146.65;100.00
57094;BME280;42970;50.996;3.706;2023-02-14T08:31:23;77508.38;;;-146.65;100.00
57094;BME280;42970;50.996;3.706;2023-02-14T08:33:49;77482.13;;;-146.65;100.00
57094;BME280;42970;50.996;3.706;2023-02-14T08:36:14;77463.97;;;-146.65;100.00
57094;BME280;42970;50.996;3.706;2023-02-14T08:38:41;77437.75;;;-146.65;100.00
57094;BME280;42970;50.996;3.706;2023-02-14T08:41:09;77417.56;;;-146.65;100.00
57094;BME280;42970;50.996;3.706;2023-02-14T08:43:34;77407.47;;;-146.65;100.00
57094;BME280;42970;50.996;3.706;2023-02-14T08:46:00;77385.28;;;-146.65;100.00
57094;BME280;42970;50.996;3.706;2023-02-14T08:48:25;77373.16;;;-146.65;100.00
57094;BME280;42970;50.996;3.706;2023-02-14T08:50:51;77357.03;;;-146.65;100.00
57094;BME280;42970;50.996;3.706;2023-02-14T08:53:16;77350.97;;;-146.65;100.00
57094;BME280;42970;50.996;3.706;2023-02-14T08:55:41;77324.75;;;-146.65;100.00
57094;BME280;42970;50.996;3.706;2023-02-14T08:58:07;77308.59;;;-146.65;100.00
57094;BME280;42970;50.996;3.706;2023-02-14T09:00:32;77290.44;;;-146.65;100.00
57094;BME280;42970;50.996;3.706;2023-02-14T09:02:58;77276.31;;;-146.65;100.00
57094;BME280;42970;50.996;3.706;2023-02-14T09:05:23;77256.13;;;-146.65;100.00
57094;BME280;42970;50.996;3.706;2023-02-14T09:07:49;77250.06;;;-146.65;100.00
57094;BME280;42970;50.996;3.706;2023-02-14T09:10:15;77219.81;;;-146.65;100.00
57094;BME280;42970;50.996;3.706;2023-02-14T09:12:42;77203.66;;;-146.65;100.00
57094;BME280;42970;50.996;3.706;2023-02-14T09:15:08;77181.47;;;-146.65;100.00
57094;BME280;42970;50.996;3.706;2023-02-14T09:17:34;77159.28;;;-146.65;100.00
57094;BME280;42970;50.996;3.706;2023-02-14T09:20:00;77143.13;;;-146.65;100.00
57094;BME280;42970;50.996;3.706;2023-02-14T09:22:26;77137.06;;;-146.65;100.00
57094;BME280;42970;50.996;3.706;2023-02-14T09:24:51;77124.97;;;-146.65;100.00
57094;BME280;42970;50.996;3.706;2023-02-14T09:27:16;77102.78;;;-146.65;100.00
57094;BME280;42970;50.996;3.706;2023-02-14T09:29:42;77080.56;;;-146.65;100.00
57094;BME280;42970;50.996;3.706;2023-02-14T09:32:07;77056.38;;;-146.65;99.88
57094;BME280;42970;50.996;3.706;2023-02-14T09:34:33;77034.16;;;-146.65;98.02
57094;BME280;42970;50.996;3.706;2023-02-14T09:36:59;77001.88;;;-146.65;97.73
57094;BME280;42970;50.996;3.706;2023-02-14T09:39:24;76949.41;;;-146.65;95.70
57094;BME280;42970;50.996;3.706;2023-02-14T09:46:53;76911.09;;;-146.65;91.95
57094;BME280;42970;50.996;3.706;2023-02-14T09:49:28;76864.69;;;-146.65;91.14
57094;BME280;42970;50.996;3.706;2023-02-14T09:51:56;76874.75;;;-146.65;89.29
57094;BME280;42970;50.996;3.706;2023-02-14T09:54:23;76868.72;;;-146.65;89.83
57094;BME280;42970;50.996;3.706;2023-02-14T09:56:52;76848.53;;;-146.65;90.04
57094;BME280;42970;50.996;3.706;2023-02-14T10:04:30;76755.72;;;-146.65;86.66
57094;BME280;42970;50.996;3.706;2023-02-14T10:07:00;76737.56;;;-146.65;87.01
57094;BME280;42970;50.996;3.706;2023-02-14T10:09:51;76687.13;;;-146.65;85.43
57094;BME280;42970;50.996;3.706;2023-02-14T10:14:50;76588.25;;;-146.65;79.44
57094;BME280;42970;50.996;3.706;2023-02-14T10:17:39;76562.03;;;-146.65;77.04
57094;BME280;42970;50.996;3.706;2023-02-14T10:20:04;76598.34;;;-146.65;77.24
57094;BME280;42970;50.996;3.706;2023-02-14T10:22:49;76539.84;;;-146.65;75.51
57094;BME280;42970;50.996;3.706;2023-02-14T10:25:27;76543.88;;;-146.65;75.18
57094;BME280;42970;50.996;3.706;2023-02-14T10:27:53;76549.91;;;-146.65;74.58
57094;BME280;42970;50.996;3.706;2023-02-14T10:30:21;76501.50;;;-146.65;74.70
57094;BME280;42970;50.996;3.706;2023-02-14T10:35:22;76485.38;;;-146.65;73.37
57094;BME280;42970;50.996;3.706;2023-02-14T10:37:51;76436.94;;;-146.65;72.64
57094;BME280;42970;50.996;3.706;2023-02-14T10:51:15;76307.81;;;-146.65;67.28
57094;BME280;42970;50.996;3.706;2023-02-14T10:56:19;76215.03;;;-146.65;63.28
57094;BME280;42970;50.996;3.706;2023-02-14T10:58:47;76130.28;;;-146.65;61.08
57094;BME280;42970;50.996;3.706;2023-02-14T11:01:17;76130.28;;;-146.65;59.01
57094;BME280;42970;50.996;3.706;2023-02-14T11:03:51;76116.19;;;-146.65;59.16
57094;BME280;42970;50.996;3.706;2023-02-14T11:06:17;76029.44;;;-146.65;55.31
57094;BME280;42970;50.996;3.706;2023-02-14T11:08:42;76037.50;;;-146.65;54.76
57094;BME280;42970;50.996;3.706;2023-02-14T11:13:39;75997.16;;;-146.65;53.86
57094;BME280;42970;50.996;3.706;2023-02-14T11:16:09;75993.13;;;-146.65;53.45
57094;BME280;42970;50.996;3.706;2023-02-14T11:18:37;75960.84;;;-146.65;51.57
57094;BME280;42970;50.996;3.706;2023-02-14T11:23:36;75979.00;;;-146.65;51.71
57094;BME280;42970;50.996;3.706;2023-02-14T11:26:02;76041.53;;;-146.65;53.20
57094;BME280;42970;50.996;3.706;2023-02-14T11:28:30;75930.59;;;-146.65;51.26
57094;BME280;42970;50.996;3.706;2023-02-14T11:30:55;75987.06;;;-146.65;51.53
57094;BME280;42970;50.996;3.706;2023-02-14T11:33:37;75981.00;;;-146.65;52.24
57094;BME280;42970;50.996;3.706;2023-02-14T11:36:04;75944.69;;;-146.65;51.31
57094;BME280;42970;50.996;3.706;2023-02-14T11:38:34;75908.41;;;-146.65;51.76
57094;BME280;42970;50.996;3.706;2023-02-14T11:41:01;75952.78;;;-146.65;51.01
57094;BME280;42970;50.996;3.706;2023-02-14T11:43:34;75962.84;;;-146.65;51.41
57094;BME280;42970;50.996;3.706;2023-02-14T11:48:35;75823.66;;;-146.65;49.22
57094;BME280;42970;50.996;3.706;2023-02-14T11:51:02;75734.91;;;-146.65;47.47
57094;BME280;42970;50.996;3.706;2023-02-14T11:53:32;75763.16;;;-146.65;48.07
57094;BME280;42970;50.996;3.706;2023-02-14T11:56:01;75674.41;;;-146.65;46.23
57094;BME280;42970;50.996;3.706;2023-02-14T11:59:00;75710.72;;;-146.65;46.55
57094;BME280;42970;50.996;3.706;2023-02-14T12:03:47;75789.38;;;-146.65;48.03
57094;BME280;42970;50.996;3.706;2023-02-14T12:06:20;75753.06;;;-146.65;46.96
57094;BME280;42970;50.996;3.706;2023-02-14T12:08:47;75690.53;;;-146.65;45.78
57094;BME280;42970;50.996;3.706;2023-02-14T12:11:19;75791.41;;;-146.65;47.79
57094;BME280;42970;50.996;3.706;2023-02-14T12:13:55;75609.84;;;-146.65;45.73
57094;BME280;42970;50.996;3.706;2023-02-14T12:16:23;75492.88;;;-146.65;44.38
57094;BME280;42970;50.996;3.706;2023-02-14T12:18:51;75605.81;;;-146.65;44.51
57094;BME280;42970;50.996;3.706;2023-02-14T12:31:24;75553.38;;;-146.65;42.88
57094;BME280;42970;50.996;3.706;2023-02-14T12:33:49;75712.72;;;-146.65;45.10
57094;BME280;42970;50.996;3.706;2023-02-14T12:39:01;75767.19;;;-146.65;46.20
57094;BME280;42970;50.996;3.706;2023-02-14T12:41:44;75730.88;;;-146.65;46.13
57094;BME280;42970;50.996;3.706;2023-02-14T12:49:44;75507.00;;;-146.65;43.12
57094;BME280;42970;50.996;3.706;2023-02-14T12:57:34;75474.72;;;-146.65;42.88
57094;BME280;42970;50.996;3.706;2023-02-14T13:03:10;75464.63;;;-146.65;41.37
57094;BME280;42970;50.996;3.706;2023-02-14T13:13:43;75375.88;;;-146.65;40.99
57094;BME280;42970;50.996;3.706;2023-02-14T13:18:43;75617.94;;;-146.65;44.02
57094;BME280;42970;50.996;3.706;2023-02-14T13:21:10;75882.16;;;-146.65;48.60
57094;BME280;42970;50.996;3.706;2023-02-14T13:23:39;75948.75;;;-146.65;51.42
57094;BME280;42970;50.996;3.706;2023-02-14T13:28:34;76089.94;;;-146.65;58.77
57094;BME280;42970;50.996;3.706;2023-02-14T13:31:00;76134.31;;;-146.65;60.29
57094;BME280;42970;50.996;3.706;2023-02-14T13:33:33;76166.59;;;-146.65;63.07
57094;BME280;42970;50.996;3.706;2023-02-14T13:36:01;76194.84;;;-146.65;64.02
57094;BME280;42970;50.996;3.706;2023-02-14T13:38:26;76213.00;;;-146.65;64.35
57094;BME280;42970;50.996;3.706;2023-02-14T13:40:53;76190.81;;;-146.65;64.78
57094;BME280;42970;50.996;3.706;2023-02-14T13:46:18;76235.19;;;-146.65;66.68
57094;BME280;42970;50.996;3.706;2023-02-14T13:48:55;76263.44;;;-146.65;67.63
57094;BME280;42970;50.996;3.706;2023-02-14T13:51:21;76257.38;;;-146.65;70.40
57094;BME280;42970;50.996;3.706;2023-02-14T13:53:46;76255.38;;;-146.65;69.62
57094;BME280;42970;50.996;3.706;2023-02-14T13:58:54;76261.44;;;-146.65;71.11
57094;BME280;42970;50.996;3.706;2023-02-14T14:01:40;76257.38;;;-146.65;70.03
57094;BME280;42970;50.996;3.706;2023-02-14T14:15:08;76247.31;;;-146.65;69.22
57094;BME280;42970;50.996;3.706;2023-02-14T14:20:00;76245.28;;;-146.65;69.62
57094;BME280;42970;50.996;3.706;2023-02-14T14:22:27;76257.38;;;-146.65;69.74
57094;BME280;42970;50.996;3.706;2023-02-14T14:24:56;76251.34;;;-146.65;69.23
57094;BME280;42970;50.996;3.706;2023-02-14T14:29:54;76233.19;;;-146.65;69.03
57094;BME280;42970;50.996;3.706;2023-02-14T14:32:25;76237.22;;;-146.65;68.75
57094;BME280;42970;50.996;3.706;2023-02-14T14:34:52;76229.16;;;-146.65;69.60
57094;BME280;42970;50.996;3.706;2023-02-14T14:37:19;76233.19;;;-146.65;69.32
57094;BME280;42970;50.996;3.706;2023-02-14T14:39:52;76245.28;;;-146.65;69.21
57094;BME280;42970;50.996;3.706;2023-02-14T14:42:17;76235.19;;;-146.65;70.33
57094;BME280;42970;50.996;3.706;2023-02-14T14:44:44;76233.19;;;-146.65;70.80
57094;BME280;42970;50.996;3.706;2023-02-14T14:47:12;76239.22;;;-146.65;69.80
57094;BME280;42970;50.996;3.706;2023-02-14T14:49:40;76235.19;;;-146.65;70.63
57094;BME280;42970;50.996;3.706;2023-02-14T14:52:06;76239.22;;;-146.65;71.02
57094;BME280;42970;50.996;3.706;2023-02-14T14:54:32;76235.19;;;-146.65;71.79
57094;BME280;42970;50.996;3.706;2023-02-14T14:57:00;76235.19;;;-146.65;71.59
57094;BME280;42970;50.996;3.706;2023-02-14T14:59:28;76239.22;;;-146.65;71.22
57094;BME280;42970;50.996;3.706;2023-02-14T15:01:54;76239.22;;;-146.65;71.85